createdAt,value
2022-12-16T00:02:23.850Z,-4.73
2022-12-16T00:05:26.228Z,-4.77
2022-12-16T00:08:28.547Z,-4.87
2022-12-16T00:11:32.512Z,-4.86
2022-12-16T00:14:34.927Z,-4.93
2022-12-16T00:17:37.393Z,-5.06
2022-12-16T00:20:47.505Z,-5.11
2022-12-16T00:23:49.846Z,-5.17
2022-12-16T00:26:52.510Z,-5.19
2022-12-16T00:29:55.688Z,-5.21
2022-12-16T00:32:57.994Z,-5.28
2022-12-16T00:36:00.344Z,-5.34
2022-12-16T00:39:02.745Z,-5.32
2022-12-16T00:42:05.061Z,-5.41
2022-12-16T00:45:07.964Z,-5.52
2022-12-16T00:48:10.594Z,-5.52
2022-12-16T00:51:12.946Z,-5.66
2022-12-16T00:54:15.440Z,-5.71
2022-12-16T00:57:17.861Z,-5.78
2022-12-16T01:00:20.458Z,-5.76
2022-12-16T01:03:22.947Z,-5.84
2022-12-16T01:06:25.444Z,-6.01
2022-12-16T01:09:29.025Z,-6.03
2022-12-16T01:12:31.418Z,-6.17
2022-12-16T01:15:33.759Z,-6.19
2022-12-16T01:18:36.599Z,-6.40
2022-12-16T01:21:39.470Z,-6.38
2022-12-16T01:24:42.210Z,-6.50
2022-12-16T01:27:44.565Z,-6.58
2022-12-16T01:30:46.998Z,-6.72
2022-12-16T01:33:49.769Z,-6.67
2022-12-16T01:36:52.236Z,-6.87
2022-12-16T01:39:54.668Z,-6.86
2022-12-16T01:42:56.933Z,-6.86
2022-12-16T01:46:14.417Z,-6.83
2022-12-16T01:49:31.406Z,-6.98
2022-12-16T01:52:36.731Z,-6.89
2022-12-16T01:55:43.090Z,-6.93
2022-12-16T01:58:46.554Z,-6.91
2022-12-16T02:01:48.902Z,-6.95
2022-12-16T02:05:10.354Z,-6.99
2022-12-16T02:08:14.951Z,-7.09
2022-12-16T02:11:50.402Z,-6.99
2022-12-16T02:15:24.227Z,-6.98
2022-12-16T02:18:41.820Z,-7.10
2022-12-16T02:22:04.140Z,-7.08
2022-12-16T02:25:46.929Z,-7.41
2022-12-16T02:29:33.702Z,-7.32
2022-12-16T02:33:03.510Z,-7.36
2022-12-16T02:36:32.350Z,-7.43
2022-12-16T02:39:54.341Z,-7.45
2022-12-16T02:43:04.781Z,-7.62
2022-12-16T02:46:07.960Z,-7.86
2022-12-16T02:49:30.851Z,-7.78
2022-12-16T02:52:34.427Z,-7.73
2022-12-16T02:55:53.179Z,-7.57
2022-12-16T02:59:16.528Z,-7.61
2022-12-16T03:02:46.333Z,-7.73
2022-12-16T03:05:49.834Z,-7.61
2022-12-16T03:08:52.820Z,-7.55
2022-12-16T03:11:56.111Z,-7.56
2022-12-16T03:14:58.440Z,-7.52
2022-12-16T03:18:02.102Z,-7.59
2022-12-16T03:21:06.673Z,-7.44
2022-12-16T03:24:10.824Z,-7.43
2022-12-16T03:27:16.117Z,-7.45
2022-12-16T03:30:24.379Z,-7.39
2022-12-16T03:33:34.372Z,-7.45
2022-12-16T03:36:38.665Z,-7.38
2022-12-16T03:39:52.633Z,-7.45
2022-12-16T03:42:55.850Z,-7.52
2022-12-16T03:46:03.456Z,-7.46
2022-12-16T03:49:05.817Z,-7.51
2022-12-16T03:52:08.191Z,-7.39
2022-12-16T03:55:10.501Z,-7.34
2022-12-16T03:58:12.925Z,-7.36
2022-12-16T04:01:15.899Z,-7.36
2022-12-16T04:04:19.366Z,-7.22
2022-12-16T04:07:21.557Z,-7.32
2022-12-16T04:10:43.828Z,-7.21
2022-12-16T04:14:04.901Z,-7.31
2022-12-16T04:17:26.288Z,-7.25
2022-12-16T04:20:56.316Z,-7.30
2022-12-16T04:24:17.523Z,-7.28
2022-12-16T04:27:25.749Z,-7.20
2022-12-16T04:30:29.528Z,-7.25
2022-12-16T04:33:50.632Z,-7.27
2022-12-16T04:37:18.399Z,-7.38
2022-12-16T04:40:39.485Z,-7.54
2022-12-16T04:44:00.750Z,-7.62
2022-12-16T04:47:21.854Z,-7.73
2022-12-16T04:50:43.143Z,-7.51
2022-12-16T04:54:04.310Z,-7.56
2022-12-16T04:57:25.649Z,-7.54
2022-12-16T05:00:46.907Z,-7.64
2022-12-16T05:04:21.504Z,-7.69
2022-12-16T05:07:42.398Z,-7.75
2022-12-16T05:11:03.533Z,-7.52
2022-12-16T05:14:24.649Z,-7.58
2022-12-16T05:17:45.770Z,-7.59
2022-12-16T05:21:06.590Z,-7.64
2022-12-16T05:24:28.136Z,-7.69
2022-12-16T05:27:48.946Z,-7.64
2022-12-16T05:31:10.076Z,-7.65
2022-12-16T05:34:30.837Z,-7.84
2022-12-16T05:37:51.916Z,-7.79
2022-12-16T05:41:13.299Z,-7.68
2022-12-16T05:44:34.230Z,-7.63
2022-12-16T05:47:55.418Z,-7.43
2022-12-16T05:51:16.387Z,-7.19
2022-12-16T05:54:37.212Z,-7.16
2022-12-16T05:57:58.108Z,-7.13
2022-12-16T06:01:19.289Z,-7.01
2022-12-16T06:04:40.579Z,-6.91
2022-12-16T06:08:01.534Z,-7.08
2022-12-16T06:11:22.529Z,-7.13
2022-12-16T06:14:43.381Z,-7.28
2022-12-16T06:18:08.563Z,-7.19
2022-12-16T06:21:29.567Z,-6.81
2022-12-16T06:24:50.312Z,-6.90
2022-12-16T06:28:11.869Z,-6.80
2022-12-16T06:31:33.120Z,-6.72
2022-12-16T06:34:54.417Z,-6.70
2022-12-16T06:38:15.331Z,-6.77
2022-12-16T06:41:36.258Z,-6.83
2022-12-16T06:44:57.454Z,-7.05
2022-12-16T06:48:18.473Z,-6.94
2022-12-16T06:51:39.241Z,-7.02
2022-12-16T06:55:00.460Z,-7.05
2022-12-16T06:58:21.482Z,-7.08
2022-12-16T07:01:42.650Z,-6.97
2022-12-16T07:05:03.760Z,-6.94
2022-12-16T07:08:25.108Z,-6.93
2022-12-16T07:11:45.977Z,-6.91
2022-12-16T07:15:06.865Z,-6.80
2022-12-16T07:18:28.033Z,-6.65
2022-12-16T07:21:49.093Z,-6.65
2022-12-16T07:25:10.195Z,-6.53
2022-12-16T07:28:30.918Z,-6.65
2022-12-16T07:32:08.510Z,-6.47
2022-12-16T07:35:30.060Z,-6.43
2022-12-16T07:38:51.191Z,-6.28
2022-12-16T07:42:12.083Z,-6.25
2022-12-16T07:45:33.204Z,-6.15
2022-12-16T07:48:54.084Z,-6.17
2022-12-16T07:52:30.634Z,-6.07
2022-12-16T07:55:51.794Z,-5.96
2022-12-16T07:59:14.268Z,-6.08
2022-12-16T08:02:35.409Z,-5.94
2022-12-16T08:05:56.629Z,-5.80
2022-12-16T08:09:17.578Z,-5.68
2022-12-16T08:12:38.460Z,-5.50
2022-12-16T08:15:59.515Z,-5.65
2022-12-16T08:19:20.163Z,-5.56
2022-12-16T08:22:41.238Z,-5.44
2022-12-16T08:26:02.355Z,-5.55
2022-12-16T08:33:14.927Z,-5.61
2022-12-16T08:36:39.657Z,-5.53
2022-12-16T08:40:33.222Z,-5.59
2022-12-16T08:43:41.621Z,-5.39
2022-12-16T08:47:02.544Z,-5.50
2022-12-16T08:50:25.136Z,-5.38
2022-12-16T08:53:46.421Z,-5.42
2022-12-16T08:57:07.176Z,-5.45
2022-12-16T09:00:29.013Z,-5.41
2022-12-16T09:03:50.020Z,-5.48
2022-12-16T09:07:10.980Z,-5.32
2022-12-16T09:10:37.672Z,-5.48
2022-12-16T09:14:00.616Z,-5.50
2022-12-16T09:17:21.396Z,-5.69
2022-12-16T09:20:42.593Z,-5.62
2022-12-16T09:24:03.617Z,-5.49
2022-12-16T09:27:24.572Z,-5.23
2022-12-16T09:30:45.637Z,-5.31
2022-12-16T09:34:06.938Z,-5.33
2022-12-16T09:37:28.141Z,-5.22
2022-12-16T09:40:49.007Z,-5.08
2022-12-16T09:44:33.576Z,-5.41
2022-12-16T09:48:03.205Z,-5.24
2022-12-16T09:51:25.674Z,-5.13
2022-12-16T09:54:48.673Z,-5.29
2022-12-16T09:58:09.980Z,-5.21
2022-12-16T10:01:32.675Z,-5.29
2022-12-16T10:04:53.581Z,-5.19
2022-12-16T10:08:40.965Z,-5.43
2022-12-16T10:12:17.840Z,-5.25
2022-12-16T10:16:13.981Z,-5.19
2022-12-16T10:19:53.041Z,-5.26
2022-12-16T10:23:24.785Z,-5.27
2022-12-16T10:26:58.727Z,-5.25
2022-12-16T10:30:21.109Z,-5.12
2022-12-16T10:34:06.903Z,-4.94
2022-12-16T10:37:52.583Z,-4.98
2022-12-16T10:41:13.525Z,-5.03
2022-12-16T10:45:07.826Z,-5.08
2022-12-16T10:48:30.570Z,-4.97
2022-12-16T10:51:51.762Z,-5.08
2022-12-16T10:55:34.295Z,-5.14
2022-12-16T10:59:14.298Z,-5.23
2022-12-16T11:02:40.316Z,-5.08
2022-12-16T11:06:01.982Z,-5.03
2022-12-16T11:09:34.761Z,-5.13
2022-12-16T11:12:55.649Z,-5.21
2022-12-16T11:16:35.874Z,-5.11
2022-12-16T11:19:56.812Z,-4.94
2022-12-16T11:23:38.478Z,-4.75
2022-12-16T11:27:12.093Z,-4.67
2022-12-16T11:30:32.885Z,-4.54
2022-12-16T11:33:53.843Z,-4.60
2022-12-16T11:37:21.027Z,-4.63
2022-12-16T11:40:43.409Z,-4.61
2022-12-16T11:44:06.596Z,-4.72
2022-12-16T11:47:40.431Z,-4.65
2022-12-16T11:51:10.047Z,-4.79
2022-12-16T11:54:37.900Z,-4.83
2022-12-16T11:58:04.753Z,-4.87
2022-12-16T12:01:45.552Z,-4.86
2022-12-16T12:05:08.949Z,-4.89
2022-12-16T12:08:44.687Z,-4.71
2022-12-16T12:12:16.324Z,-4.67
2022-12-16T12:15:43.048Z,-4.64
2022-12-16T12:19:18.547Z,-4.71
2022-12-16T12:23:08.750Z,-4.67
2022-12-16T12:26:33.913Z,-4.63
2022-12-16T12:30:31.336Z,-4.73
2022-12-16T12:34:24.146Z,-5.01
2022-12-16T12:38:17.002Z,-5.07
2022-12-16T12:41:53.704Z,-4.99
2022-12-16T12:45:36.914Z,-4.90
2022-12-16T12:49:19.487Z,-4.99
2022-12-16T12:52:44.153Z,-4.84
2022-12-16T12:56:27.094Z,-4.71
2022-12-16T13:00:00.205Z,-4.59
2022-12-16T13:03:30.180Z,-4.82
2022-12-16T13:06:54.400Z,-4.69
2022-12-16T13:11:05.702Z,-4.68
2022-12-16T13:14:51.746Z,-4.90
2022-12-16T13:18:22.646Z,-4.88
2022-12-16T13:21:56.321Z,-4.76
2022-12-16T13:25:23.675Z,-5.01
2022-12-16T13:28:47.494Z,-4.87
2022-12-16T13:32:36.437Z,-4.65
2022-12-16T13:36:14.870Z,-4.81
2022-12-16T13:39:47.142Z,-4.92
2022-12-16T13:43:11.268Z,-4.88
2022-12-16T13:46:34.457Z,-4.88
2022-12-16T13:49:55.595Z,-4.88
2022-12-16T13:53:20.032Z,-4.84
2022-12-16T13:56:50.105Z,-5.03
2022-12-16T14:00:11.373Z,-5.02
2022-12-16T14:04:02.010Z,-4.88
2022-12-16T14:07:24.984Z,-4.87
2022-12-16T14:10:58.943Z,-5.05
2022-12-16T14:14:43.740Z,-4.81
2022-12-16T14:18:48.775Z,-4.98
2022-12-16T14:22:10.876Z,-4.97
2022-12-16T14:25:40.287Z,-5.04
2022-12-16T14:29:01.556Z,-5.12
2022-12-16T14:32:57.587Z,-5.07
2022-12-16T14:36:18.710Z,-5.24
2022-12-16T14:39:42.155Z,-5.09
2022-12-16T14:43:06.145Z,-5.24
2022-12-16T14:46:48.773Z,-5.18
2022-12-16T14:50:12.031Z,-5.17
2022-12-16T14:53:37.944Z,-5.13
2022-12-16T14:56:59.371Z,-5.23
2022-12-16T15:00:22.610Z,-5.18
2022-12-16T15:03:55.622Z,-5.12
2022-12-16T15:07:18.081Z,-5.03
2022-12-16T15:10:41.610Z,-5.15
2022-12-16T15:14:04.086Z,-5.11
2022-12-16T15:17:25.506Z,-5.14
2022-12-16T15:20:47.801Z,-5.21
2022-12-16T15:24:08.697Z,-5.25
2022-12-16T15:27:56.100Z,-5.18
2022-12-16T15:31:17.163Z,-5.23
2022-12-16T15:34:45.607Z,-5.10
2022-12-16T15:38:06.743Z,-5.08
2022-12-16T15:41:39.779Z,-5.19
2022-12-16T15:45:07.056Z,-5.15
2022-12-16T15:48:37.249Z,-5.06
2022-12-16T15:52:09.514Z,-5.11
2022-12-16T15:55:50.734Z,-5.13
2022-12-16T15:59:45.497Z,-5.10
2022-12-16T16:03:08.186Z,-5.13
2022-12-16T16:06:35.682Z,-5.20
2022-12-16T16:09:59.624Z,-5.10
2022-12-16T16:13:20.483Z,-5.07
2022-12-16T16:16:41.238Z,-5.05
2022-12-16T16:20:04.003Z,-5.26
2022-12-16T16:23:25.028Z,-5.14
2022-12-16T16:26:47.224Z,-5.14
2022-12-16T16:30:08.353Z,-5.05
2022-12-16T16:33:29.278Z,-5.28
2022-12-16T16:36:50.448Z,-5.16
2022-12-16T16:40:11.326Z,-5.27
2022-12-16T16:43:32.515Z,-5.18
2022-12-16T16:47:00.281Z,-5.09
2022-12-16T16:50:21.765Z,-5.13
2022-12-16T16:53:42.789Z,-5.26
2022-12-16T16:57:03.560Z,-5.23
2022-12-16T17:00:24.838Z,-5.24
2022-12-16T17:03:45.856Z,-5.26
2022-12-16T17:07:07.099Z,-5.29
2022-12-16T17:10:28.797Z,-5.26
2022-12-16T17:13:49.761Z,-5.33
2022-12-16T17:17:10.811Z,-5.30
2022-12-16T17:20:36.294Z,-5.27
2022-12-16T17:23:57.933Z,-5.30
2022-12-16T17:27:27.502Z,-5.41
2022-12-16T17:30:48.707Z,-5.26
2022-12-16T17:34:09.820Z,-5.43
2022-12-16T17:37:30.706Z,-5.58
2022-12-16T17:40:51.549Z,-5.50
2022-12-16T17:44:12.744Z,-5.43
2022-12-16T17:47:34.045Z,-5.50
2022-12-16T17:50:54.897Z,-5.28
2022-12-16T17:54:22.610Z,-5.49
2022-12-16T17:57:44.837Z,-5.63
2022-12-16T18:01:05.960Z,-5.60
2022-12-16T18:04:27.166Z,-5.51
2022-12-16T18:08:08.077Z,-5.55
2022-12-16T18:11:28.924Z,-5.40
2022-12-16T18:14:49.841Z,-5.57
2022-12-16T18:18:11.112Z,-5.74
2022-12-16T18:21:33.264Z,-5.58
2022-12-16T18:24:54.259Z,-5.47
2022-12-16T18:28:15.841Z,-5.56
2022-12-16T18:31:36.667Z,-5.57
2022-12-16T18:34:57.520Z,-5.50
2022-12-16T18:38:18.522Z,-5.54
2022-12-16T18:41:41.208Z,-5.71
2022-12-16T18:45:02.105Z,-5.62
2022-12-16T18:48:23.176Z,-5.59
2022-12-16T18:51:45.087Z,-5.60
2022-12-16T18:55:06.043Z,-5.62
2022-12-16T18:58:50.107Z,-5.90
2022-12-16T19:02:08.493Z,-5.97
2022-12-16T19:05:29.515Z,-5.78
2022-12-16T19:08:50.192Z,-5.69
2022-12-16T19:12:11.045Z,-5.70
2022-12-16T19:15:34.332Z,-5.79
2022-12-16T19:18:57.642Z,-5.91
2022-12-16T19:22:18.839Z,-5.83
2022-12-16T19:25:40.030Z,-5.75
2022-12-16T19:29:01.521Z,-5.77
2022-12-16T19:32:22.434Z,-5.70
2022-12-16T19:35:43.599Z,-5.91
2022-12-16T19:39:04.550Z,-6.04
2022-12-16T19:42:25.701Z,-5.97
2022-12-16T19:46:00.240Z,-5.89
2022-12-16T19:49:21.451Z,-5.96
2022-12-16T19:52:42.934Z,-5.98
2022-12-16T19:56:03.836Z,-6.06
2022-12-16T19:59:24.834Z,-6.17
2022-12-16T20:02:46.155Z,-6.10
2022-12-16T20:06:07.378Z,-6.27
2022-12-16T20:09:28.840Z,-6.02
2022-12-16T20:12:49.992Z,-6.37
2022-12-16T20:16:11.085Z,-6.05
2022-12-16T20:19:32.404Z,-6.02
2022-12-16T20:22:53.767Z,-6.25
2022-12-16T20:26:17.884Z,-6.50
2022-12-16T20:29:38.835Z,-6.37
2022-12-16T20:33:00.212Z,-6.28
2022-12-16T20:36:23.354Z,-6.41
2022-12-16T20:43:25.417Z,-6.11
2022-12-16T20:46:47.787Z,-6.00
2022-12-16T20:50:09.005Z,-6.38
2022-12-16T20:53:30.235Z,-6.26
2022-12-16T20:56:51.151Z,-6.35
2022-12-16T21:00:14.253Z,-6.50
2022-12-16T21:03:34.928Z,-6.56
2022-12-16T21:06:56.190Z,-6.50
2022-12-16T21:10:17.415Z,-6.60
2022-12-16T21:13:39.166Z,-6.64
2022-12-16T21:17:00.105Z,-6.54
2022-12-16T21:20:21.009Z,-6.49
2022-12-16T21:23:42.491Z,-6.64
2022-12-16T21:27:03.750Z,-6.36
2022-12-16T21:30:25.741Z,-6.39
2022-12-16T21:33:47.105Z,-6.64
2022-12-16T21:37:09.867Z,-6.48
2022-12-16T21:40:30.849Z,-6.46
2022-12-16T21:43:51.731Z,-6.61
2022-12-16T21:47:13.240Z,-6.84
2022-12-16T21:50:34.171Z,-6.74
2022-12-16T21:53:55.489Z,-6.78
2022-12-16T21:57:17.898Z,-6.91
2022-12-16T22:00:39.035Z,-6.64
2022-12-16T22:04:00.110Z,-6.73
2022-12-16T22:07:22.663Z,-6.57
2022-12-16T22:10:43.571Z,-6.42
2022-12-16T22:14:04.707Z,-6.74
2022-12-16T22:17:25.750Z,-6.80
2022-12-16T22:20:46.786Z,-6.67
2022-12-16T22:24:08.222Z,-6.64
2022-12-16T22:27:30.196Z,-6.76
2022-12-16T22:30:51.007Z,-6.67
2022-12-16T22:34:13.163Z,-6.70
2022-12-16T22:37:34.339Z,-6.71
2022-12-16T22:40:56.424Z,-6.70
2022-12-16T22:44:17.822Z,-6.72
2022-12-16T22:47:38.840Z,-6.69
2022-12-16T22:51:00.223Z,-6.81
2022-12-16T22:54:32.735Z,-6.85
2022-12-16T22:57:53.694Z,-6.84
2022-12-16T23:01:15.214Z,-6.82
2022-12-16T23:04:36.261Z,-6.91
2022-12-16T23:07:57.298Z,-6.75
2022-12-16T23:11:19.350Z,-6.89
2022-12-16T23:14:42.995Z,-6.76
2022-12-16T23:18:04.469Z,-6.71
2022-12-16T23:21:34.684Z,-6.82
2022-12-16T23:24:55.662Z,-6.85
2022-12-16T23:28:18.051Z,-6.76
2022-12-16T23:31:39.088Z,-6.89
2022-12-16T23:35:00.037Z,-6.92
2022-12-16T23:38:25.423Z,-6.71
2022-12-16T23:41:54.291Z,-6.99
2022-12-16T23:45:17.703Z,-6.99
2022-12-16T23:48:39.008Z,-7.09
2022-12-16T23:51:59.818Z,-6.69
2022-12-16T23:55:20.699Z,-6.83
2022-12-16T23:58:41.667Z,-6.85
